createdAt,value
2022-08-03T00:00:42.550Z,16.12
2022-08-03T00:03:49.242Z,16.15
2022-08-03T00:06:56.915Z,15.29
2022-08-03T00:10:03.218Z,14.80
2022-08-03T00:13:10.024Z,14.42
2022-08-03T00:16:16.762Z,14.17
2022-08-03T00:19:23.400Z,13.82
2022-08-03T00:22:31.297Z,14.08
2022-08-03T00:25:38.422Z,14.58
2022-08-03T00:28:44.812Z,14.29
2022-08-03T00:31:59.172Z,14.40
2022-08-03T00:35:09.160Z,14.32
2022-08-03T00:38:18.859Z,14.07
2022-08-03T00:41:25.334Z,14.19
2022-08-03T00:44:32.379Z,14.34
2022-08-03T00:47:38.711Z,14.65
2022-08-03T00:50:45.108Z,14.63
2022-08-03T00:53:52.965Z,14.32
2022-08-03T00:57:00.574Z,14.65
2022-08-03T01:00:11.398Z,13.83
2022-08-03T01:03:18.136Z,13.62
2022-08-03T01:06:32.378Z,13.99
2022-08-03T01:10:01.155Z,14.44
2022-08-03T01:14:01.601Z,14.05
2022-08-03T01:16:58.416Z,13.74
2022-08-03T01:20:08.889Z,14.40
2022-08-03T01:23:45.776Z,15.19
2022-08-03T01:27:06.562Z,15.20
2022-08-03T01:30:14.911Z,15.26
2022-08-03T01:33:25.681Z,14.84
2022-08-03T01:36:36.683Z,14.21
2022-08-03T01:39:44.620Z,13.63
2022-08-03T01:42:53.137Z,13.89
2022-08-03T01:46:01.817Z,14.53
2022-08-03T01:49:12.056Z,14.53
2022-08-03T01:52:21.002Z,13.84
2022-08-03T01:55:28.900Z,13.31
2022-08-03T01:58:38.077Z,13.41
2022-08-03T02:02:15.547Z,13.39
2022-08-03T02:05:16.204Z,13.69
2022-08-03T02:08:25.619Z,13.49
2022-08-03T02:11:34.030Z,13.93
2022-08-03T02:14:42.561Z,14.30
2022-08-03T02:17:52.938Z,14.15
2022-08-03T02:21:00.469Z,14.41
2022-08-03T02:24:10.454Z,14.65
2022-08-03T02:27:22.225Z,14.38
2022-08-03T02:30:37.261Z,13.89
2022-08-03T02:33:50.542Z,14.08
2022-08-03T02:37:01.665Z,13.98
2022-08-03T02:40:11.531Z,13.23
2022-08-03T02:43:21.939Z,12.73
2022-08-03T02:46:34.472Z,12.87
2022-08-03T02:49:50.915Z,12.96
2022-08-03T02:52:59.974Z,12.93
2022-08-03T02:56:08.802Z,13.21
2022-08-03T02:59:17.708Z,12.92
2022-08-03T03:02:25.542Z,13.48
2022-08-03T03:05:55.277Z,12.88
2022-08-03T03:09:03.003Z,13.52
2022-08-03T03:12:11.317Z,13.76
2022-08-03T03:15:17.745Z,13.81
2022-08-03T03:18:25.479Z,13.87
2022-08-03T03:21:34.885Z,13.99
2022-08-03T03:24:43.336Z,14.29
2022-08-03T03:27:50.916Z,14.09
2022-08-03T03:30:58.015Z,14.38
2022-08-03T03:34:05.314Z,14.06
2022-08-03T03:37:14.820Z,13.92
2022-08-03T03:40:21.641Z,14.01
2022-08-03T03:43:29.559Z,13.83
2022-08-03T03:46:36.105Z,13.56
2022-08-03T03:49:43.058Z,12.77
2022-08-03T03:52:54.308Z,12.69
2022-08-03T03:56:02.875Z,13.29
2022-08-03T03:59:09.619Z,13.34
2022-08-03T04:02:16.908Z,13.57
2022-08-03T04:05:44.260Z,14.04
2022-08-03T04:09:13.559Z,13.83
2022-08-03T04:12:24.435Z,14.27
2022-08-03T04:15:34.727Z,14.43
2022-08-03T04:18:43.507Z,14.33
2022-08-03T04:21:53.238Z,14.19
2022-08-03T04:25:10.650Z,14.38
2022-08-03T04:28:29.391Z,15.08
2022-08-03T04:31:40.055Z,15.37
2022-08-03T04:34:46.632Z,15.45
2022-08-03T04:37:55.505Z,16.12
2022-08-03T04:41:03.467Z,16.24
2022-08-03T04:44:11.708Z,15.65
2022-08-03T04:47:18.576Z,15.89
2022-08-03T04:50:28.422Z,15.97
2022-08-03T04:53:35.202Z,16.86
2022-08-03T04:56:46.735Z,17.40
2022-08-03T05:00:02.498Z,17.02
2022-08-03T05:03:20.394Z,17.49
2022-08-03T05:06:31.172Z,17.81
2022-08-03T05:09:52.453Z,17.51
2022-08-03T05:13:05.532Z,17.65
2022-08-03T05:16:12.217Z,17.78
2022-08-03T05:19:20.753Z,18.28
2022-08-03T05:22:27.406Z,18.23
2022-08-03T05:25:39.969Z,18.27
2022-08-03T05:28:57.549Z,18.46
2022-08-03T05:32:08.282Z,18.51
2022-08-03T05:35:55.700Z,19.07
2022-08-03T05:38:43.818Z,19.50
2022-08-03T05:41:53.021Z,19.48
2022-08-03T05:45:13.079Z,19.82
2022-08-03T05:48:19.779Z,19.70
2022-08-03T05:51:29.102Z,19.67
2022-08-03T05:54:56.170Z,19.20
2022-08-03T05:58:04.232Z,19.33
2022-08-03T06:01:12.836Z,20.07
2022-08-03T06:04:22.376Z,20.36
2022-08-03T06:07:33.748Z,20.74
2022-08-03T06:10:42.522Z,21.15
2022-08-03T06:13:49.019Z,20.83
2022-08-03T06:17:10.874Z,21.09
2022-08-03T06:20:20.562Z,20.81
2022-08-03T06:23:54.791Z,20.85
2022-08-03T06:26:55.526Z,21.17
2022-08-03T06:30:02.196Z,21.21
2022-08-03T06:33:11.470Z,21.81
2022-08-03T06:36:18.156Z,21.63
2022-08-03T06:39:28.462Z,22.06
2022-08-03T06:42:34.748Z,22.26
2022-08-03T06:45:41.429Z,22.87
2022-08-03T06:48:50.980Z,22.50
2022-08-03T06:52:04.568Z,22.81
2022-08-03T06:55:13.127Z,22.97
2022-08-03T06:58:19.547Z,22.85
2022-08-03T07:01:28.987Z,22.77
2022-08-03T07:04:37.128Z,23.59
2022-08-03T07:07:47.017Z,23.68
2022-08-03T07:10:56.637Z,23.59
2022-08-03T07:14:07.857Z,23.82
2022-08-03T07:17:16.991Z,23.74
2022-08-03T07:20:32.521Z,23.71
2022-08-03T07:23:39.199Z,23.78
2022-08-03T07:26:48.448Z,23.76
2022-08-03T07:29:58.274Z,24.97
2022-08-03T07:33:07.733Z,24.92
2022-08-03T07:36:16.120Z,24.71
2022-08-03T07:39:23.864Z,25.42
2022-08-03T07:42:31.555Z,25.13
2022-08-03T07:45:38.340Z,25.36
2022-08-03T07:48:44.943Z,25.37
2022-08-03T07:52:08.350Z,25.30
2022-08-03T07:55:15.010Z,25.64
2022-08-03T07:58:24.338Z,25.78
2022-08-03T08:01:36.843Z,25.70
2022-08-03T08:04:43.436Z,26.27
2022-08-03T08:07:51.895Z,26.14
2022-08-03T08:10:59.212Z,26.24
2022-08-03T08:14:05.637Z,26.47
2022-08-03T08:17:12.380Z,26.73
2022-08-03T08:20:28.056Z,27.03
2022-08-03T08:23:43.434Z,26.55
2022-08-03T08:26:50.988Z,27.06
2022-08-03T08:30:02.531Z,27.18
2022-08-03T08:33:22.599Z,27.77
2022-08-03T08:36:30.128Z,27.89
2022-08-03T08:39:38.039Z,27.46
2022-08-03T08:42:58.014Z,28.27
2022-08-03T08:46:05.696Z,27.79
2022-08-03T08:49:14.107Z,27.51
2022-08-03T08:52:25.489Z,27.69
2022-08-03T08:55:58.566Z,27.51
2022-08-03T08:59:06.709Z,27.76
2022-08-03T09:02:13.670Z,28.66
2022-08-03T09:05:31.649Z,28.68
2022-08-03T09:08:49.906Z,28.55
2022-08-03T09:12:13.756Z,28.34
2022-08-03T09:16:00.707Z,28.16
2022-08-03T09:19:14.404Z,27.76
2022-08-03T09:22:21.154Z,27.15
2022-08-03T09:25:35.016Z,27.72
2022-08-03T09:28:59.823Z,27.21
2022-08-03T09:32:09.628Z,28.00
2022-08-03T09:35:27.909Z,28.21
2022-08-03T09:38:42.747Z,27.50
2022-08-03T09:41:50.522Z,28.20
2022-08-03T09:44:59.296Z,28.46
2022-08-03T09:48:23.474Z,29.01
2022-08-03T09:51:33.219Z,28.99
2022-08-03T09:54:56.958Z,29.17
2022-08-03T09:58:09.647Z,29.57
2022-08-03T10:01:25.362Z,29.30
2022-08-03T10:04:31.977Z,30.01
2022-08-03T10:07:46.089Z,30.47
2022-08-03T10:10:58.806Z,30.57
2022-08-03T10:14:06.821Z,28.89
2022-08-03T10:17:15.315Z,28.49
2022-08-03T10:20:21.817Z,28.58
2022-08-03T10:23:33.157Z,28.16
2022-08-03T10:26:49.968Z,27.49
2022-08-03T10:30:03.114Z,27.90
2022-08-03T10:33:51.834Z,27.40
2022-08-03T10:36:47.125Z,27.81
2022-08-03T10:39:58.075Z,27.33
2022-08-03T10:43:09.318Z,27.41
2022-08-03T10:46:19.847Z,27.84
2022-08-03T10:49:34.587Z,27.18
2022-08-03T10:52:56.330Z,27.33
2022-08-03T10:56:28.617Z,26.84
2022-08-03T11:00:06.393Z,27.38
2022-08-03T11:03:15.332Z,27.36
2022-08-03T11:06:24.975Z,27.60
2022-08-03T11:09:43.152Z,26.94
2022-08-03T11:13:09.198Z,26.86
2022-08-03T11:16:23.483Z,27.02
2022-08-03T11:19:57.422Z,27.17
2022-08-03T11:23:04.595Z,27.38
2022-08-03T11:26:15.821Z,27.42
2022-08-03T11:29:31.841Z,27.38
2022-08-03T11:33:00.009Z,27.73
2022-08-03T11:36:06.865Z,27.45
2022-08-03T11:39:17.377Z,28.89
2022-08-03T11:42:45.239Z,28.13
2022-08-03T11:46:00.699Z,28.00
2022-08-03T11:49:10.941Z,28.53
2022-08-03T11:52:27.135Z,27.89
2022-08-03T11:55:37.191Z,27.57
2022-08-03T11:58:58.163Z,27.26
2022-08-03T12:02:17.904Z,26.63
2022-08-03T12:05:34.972Z,26.57
2022-08-03T12:08:42.370Z,26.39
2022-08-03T12:11:50.869Z,26.48
2022-08-03T12:15:08.442Z,25.80
2022-08-03T12:18:18.336Z,25.92
2022-08-03T12:21:25.359Z,25.93
2022-08-03T12:24:42.665Z,25.71
2022-08-03T12:27:49.016Z,25.32
2022-08-03T12:30:55.468Z,25.28
2022-08-03T12:34:05.262Z,25.30
2022-08-03T12:37:21.838Z,25.18
2022-08-03T12:40:28.754Z,25.13
2022-08-03T12:43:39.540Z,25.09
2022-08-03T12:46:47.730Z,25.33
2022-08-03T12:49:56.928Z,25.18
2022-08-03T12:53:07.920Z,25.25
2022-08-03T12:56:15.422Z,25.26
2022-08-03T12:59:32.383Z,25.14
2022-08-03T13:03:41.939Z,25.05
2022-08-03T13:07:03.120Z,25.10
2022-08-03T13:10:10.891Z,24.96
2022-08-03T13:13:20.852Z,24.97
2022-08-03T13:16:27.489Z,25.22
2022-08-03T13:19:34.002Z,25.26
2022-08-03T13:22:43.002Z,25.40
2022-08-03T13:25:55.871Z,25.29
2022-08-03T13:29:02.491Z,25.30
2022-08-03T13:32:09.379Z,24.73
2022-08-03T13:35:16.524Z,24.48
2022-08-03T13:38:27.174Z,24.05
2022-08-03T13:41:33.848Z,24.09
2022-08-03T13:44:41.243Z,23.98
2022-08-03T13:47:47.638Z,23.54
2022-08-03T13:50:53.930Z,23.58
2022-08-03T13:54:01.788Z,23.67
2022-08-03T13:58:03.079Z,23.32
2022-08-03T14:00:34.613Z,23.65
2022-08-03T14:03:40.861Z,23.76
2022-08-03T14:06:47.347Z,23.71
2022-08-03T14:09:55.158Z,23.73
2022-08-03T14:13:02.001Z,23.55
2022-08-03T14:16:09.884Z,23.93
2022-08-03T14:19:17.156Z,23.65
2022-08-03T14:22:31.264Z,23.88
2022-08-03T14:25:43.518Z,23.46
2022-08-03T14:28:56.896Z,23.75
2022-08-03T14:32:09.440Z,23.19
2022-08-03T14:35:16.795Z,23.13
2022-08-03T14:38:23.518Z,23.31
2022-08-03T14:41:31.144Z,23.05
2022-08-03T14:44:37.557Z,23.36
2022-08-03T14:50:27.989Z,23.45
2022-08-03T14:51:10.418Z,23.58
2022-08-03T14:54:16.847Z,23.40
2022-08-03T14:57:26.420Z,23.61
2022-08-03T15:00:32.916Z,23.74
2022-08-03T15:03:39.148Z,23.59
2022-08-03T15:06:45.666Z,23.86
2022-08-03T15:09:57.351Z,23.75
2022-08-03T15:13:04.979Z,23.77
2022-08-03T15:16:11.603Z,23.92
2022-08-03T15:20:02.117Z,23.35
2022-08-03T15:22:44.069Z,23.00
2022-08-03T15:26:29.035Z,23.13
2022-08-03T15:30:08.221Z,23.22
2022-08-03T15:32:44.491Z,23.00
2022-08-03T15:35:50.742Z,23.07
2022-08-03T15:38:57.231Z,23.17
2022-08-03T15:42:03.521Z,22.99
2022-08-03T15:45:12.115Z,23.02
2022-08-03T15:48:20.287Z,23.01
2022-08-03T15:51:32.891Z,22.95
2022-08-03T15:54:39.471Z,23.12
2022-08-03T15:59:11.422Z,23.19
2022-08-03T16:01:16.453Z,23.17
2022-08-03T16:04:25.627Z,23.22
2022-08-03T16:07:59.069Z,23.21
2022-08-03T16:11:10.449Z,23.10
2022-08-03T16:14:34.662Z,23.15
2022-08-03T16:17:44.750Z,23.11
2022-08-03T16:20:51.116Z,23.21
2022-08-03T16:23:57.293Z,23.25
2022-08-03T16:27:03.335Z,23.39
2022-08-03T16:30:12.135Z,23.33
2022-08-03T16:33:20.026Z,23.19
2022-08-03T16:36:26.464Z,23.24
2022-08-03T16:39:41.450Z,23.19
2022-08-03T16:42:48.155Z,23.11
2022-08-03T16:45:55.038Z,23.04
2022-08-03T16:49:02.809Z,22.85
2022-08-03T16:52:09.286Z,22.54
2022-08-03T16:55:48.750Z,22.49
2022-08-03T16:58:45.612Z,22.51
2022-08-03T17:01:56.653Z,22.56
2022-08-03T17:05:22.468Z,22.54
2022-08-03T17:08:32.458Z,22.45
2022-08-03T17:11:44.126Z,22.43
2022-08-03T17:14:53.665Z,22.38
2022-08-03T17:18:05.719Z,22.36
2022-08-03T17:21:16.908Z,22.12
2022-08-03T17:24:35.038Z,21.99
2022-08-03T17:28:48.359Z,21.95
2022-08-03T17:31:23.382Z,21.91
2022-08-03T17:34:39.660Z,21.70
2022-08-03T17:37:57.903Z,21.66
2022-08-03T17:41:10.619Z,21.40
2022-08-03T17:44:32.062Z,21.59
2022-08-03T17:47:44.200Z,21.56
2022-08-03T17:50:55.087Z,21.23
2022-08-03T17:54:18.290Z,21.29
2022-08-03T17:57:30.573Z,21.18
2022-08-03T18:02:02.107Z,21.31
2022-08-03T18:04:55.445Z,21.30
2022-08-03T18:08:09.468Z,21.16
2022-08-03T18:11:22.960Z,21.12
2022-08-03T18:14:38.957Z,21.07
2022-08-03T18:17:55.200Z,20.99
2022-08-03T18:21:17.033Z,20.88
2022-08-03T18:24:26.213Z,20.99
2022-08-03T18:27:46.012Z,20.90
2022-08-03T18:30:55.248Z,20.77
2022-08-03T18:34:17.950Z,20.69
2022-08-03T18:37:31.484Z,20.68
2022-08-03T18:40:57.770Z,20.57
2022-08-03T18:44:09.552Z,20.47
2022-08-03T18:47:54.312Z,20.36
2022-08-03T18:51:07.120Z,20.31
2022-08-03T18:54:50.987Z,20.34
2022-08-03T18:57:50.184Z,20.14
2022-08-03T19:01:15.454Z,20.08
2022-08-03T19:04:37.383Z,20.08
2022-08-03T19:07:58.397Z,20.31
2022-08-03T19:11:09.724Z,20.21
2022-08-03T19:14:18.976Z,20.15
2022-08-03T19:17:29.292Z,20.00
2022-08-03T19:20:36.100Z,20.01
2022-08-03T19:23:45.790Z,20.08
2022-08-03T19:26:56.005Z,20.06
2022-08-03T19:30:08.209Z,20.02
2022-08-03T19:33:23.331Z,20.01
2022-08-03T19:36:29.700Z,19.68
2022-08-03T19:39:36.395Z,19.70
2022-08-03T19:42:48.122Z,19.56
2022-08-03T19:46:06.234Z,19.76
2022-08-03T19:49:17.271Z,19.78
2022-08-03T19:52:24.473Z,19.70
2022-08-03T19:55:41.035Z,19.65
2022-08-03T19:58:56.931Z,19.58
2022-08-03T20:02:05.827Z,19.70
2022-08-03T20:05:15.296Z,19.38
2022-08-03T20:08:22.212Z,18.52
2022-08-03T20:11:29.030Z,18.46
2022-08-03T20:14:35.323Z,18.60
2022-08-03T20:17:55.366Z,19.12
2022-08-03T20:21:15.346Z,19.21
2022-08-03T20:24:28.112Z,19.01
2022-08-03T20:28:06.677Z,19.07
2022-08-03T20:31:11.984Z,18.52
2022-08-03T20:34:18.699Z,18.66
2022-08-03T20:37:26.286Z,18.76
2022-08-03T20:40:32.412Z,18.80
2022-08-03T20:43:38.741Z,18.78
2022-08-03T20:46:53.378Z,18.10
2022-08-03T20:50:07.569Z,18.16
2022-08-03T20:53:16.133Z,18.35
2022-08-03T20:56:43.025Z,18.92
2022-08-03T20:59:55.906Z,18.79
2022-08-03T21:03:02.162Z,18.20
2022-08-03T21:06:11.544Z,18.09
2022-08-03T21:09:40.070Z,18.06
2022-08-03T21:12:53.127Z,18.09
2022-08-03T21:16:12.775Z,18.76
2022-08-03T21:19:23.404Z,19.04
2022-08-03T21:22:34.228Z,18.90
2022-08-03T21:25:44.676Z,18.86
2022-08-03T21:28:53.460Z,18.87
2022-08-03T21:32:02.195Z,18.69
2022-08-03T21:35:11.701Z,18.46
2022-08-03T21:38:20.791Z,18.75
2022-08-03T21:41:39.199Z,19.03
2022-08-03T21:44:45.441Z,18.85
2022-08-03T21:47:51.492Z,18.92
2022-08-03T21:50:58.110Z,18.64
2022-08-03T21:54:05.044Z,18.72
2022-08-03T21:57:19.120Z,18.71
2022-08-03T22:00:25.898Z,18.89
2022-08-03T22:03:32.661Z,18.93
2022-08-03T22:06:59.145Z,18.78
2022-08-03T22:10:07.761Z,18.76
2022-08-03T22:13:20.625Z,18.72
2022-08-03T22:16:42.588Z,18.70
2022-08-03T22:19:49.740Z,18.73
2022-08-03T22:22:57.885Z,18.65
2022-08-03T22:26:05.647Z,18.60
2022-08-03T22:29:13.403Z,18.13
2022-08-03T22:32:20.081Z,18.26
2022-08-03T22:35:28.548Z,18.24
2022-08-03T22:38:35.168Z,18.34
2022-08-03T22:41:41.389Z,18.06
2022-08-03T22:44:51.198Z,17.63
2022-08-03T22:47:59.133Z,17.79
2022-08-03T22:51:06.631Z,17.62
2022-08-03T22:54:13.448Z,17.34
2022-08-03T22:57:23.007Z,17.55
2022-08-03T23:00:30.734Z,17.65
2022-08-03T23:04:00.986Z,17.27
2022-08-03T23:07:09.389Z,17.10
2022-08-03T23:10:16.799Z,17.58
2022-08-03T23:13:26.409Z,18.08
2022-08-03T23:16:39.477Z,18.18
2022-08-03T23:19:46.309Z,18.30
2022-08-03T23:22:52.996Z,18.24
2022-08-03T23:26:00.619Z,17.96
2022-08-03T23:29:06.587Z,17.96
2022-08-03T23:32:14.694Z,17.87
2022-08-03T23:36:28.529Z,17.76
2022-08-03T23:39:05.480Z,17.54
2022-08-03T23:42:12.628Z,17.43
2022-08-03T23:45:20.651Z,17.90
2022-08-03T23:48:29.204Z,17.88
2022-08-03T23:51:43.660Z,17.69
2022-08-03T23:55:01.279Z,18.02
2022-08-03T23:58:20.038Z,18.05
